Time;durP1;ratioP1;P1;durP2;ratioP2;P2;SDS_P1;SDS_P2;PMS_P1;PMS_P2;Temp;Humidity;BMP_temperature;BMP_pressure;BME280_temperature;BME280_humidity;BME280_pressure;Samples;Min_cycle;Max_cycle;Signal;HPM_P1;HPM_P2
2022/09/16 00:02:06;;;;;;;;;5.50;5.50;;;;;;;;5076709;28;45318;-71
2022/09/16 00:04:31;;;;;;;;;6.75;6.75;;;;;;;;5076329;28;45246;-71
2022/09/16 00:06:56;;;;;;;;;1.50;1.50;;;;;;;;5075420;28;45220;-70
2022/09/16 00:09:21;;;;;;;;;7.00;7.00;;;;;;;;5076097;28;45284;-71
2022/09/16 00:11:46;;;;;;;;;6.75;6.75;;;;;;;;5075683;28;45296;-72
2022/09/16 00:14:12;;;;;;;;;7.25;7.25;;;;;;;;5075154;28;45569;-73
2022/09/16 00:16:37;;;;;;;;;6.50;6.50;;;;;;;;5075311;28;45609;-75
2022/09/16 00:19:02;;;;;;;;;6.00;6.00;;;;;;;;5075193;28;45429;-74
2022/09/16 00:21:28;;;;;;;;;6.00;6.00;;;;;;;;5077006;28;45443;-74
2022/09/16 00:23:54;;;;;;;;;6.25;6.25;;;;;;;;5076721;28;45636;-72
2022/09/16 00:26:19;;;;;;;;;7.50;7.50;;;;;;;;5076138;28;45725;-75
2022/09/16 00:28:49;;;;;;;;;8.00;8.00;;;;;;;;5057178;28;45405;-76
2022/09/16 00:31:14;;;;;;;;;8.00;8.00;;;;;;;;5075835;27;45256;-75
2022/09/16 00:33:40;;;;;;;;;8.50;8.50;;;;;;;;5075523;28;45571;-76
2022/09/16 00:36:05;;;;;;;;;8.00;8.00;;;;;;;;5075245;28;46221;-75
2022/09/16 00:38:30;;;;;;;;;5.50;5.50;;;;;;;;5075575;28;45482;-75
2022/09/16 00:40:55;;;;;;;;;7.00;7.00;;;;;;;;5075356;28;45299;-74
2022/09/16 00:43:21;;;;;;;;;9.25;9.25;;;;;;;;5075965;28;45299;-73
2022/09/16 00:45:49;;;;;;;;;7.75;7.75;;;;;;;;5074897;28;46547;-72
2022/09/16 00:48:18;;;;;;;;;7.50;7.50;;;;;;;;5074831;28;45410;-70
2022/09/16 00:50:47;;;;;;;;;8.00;8.00;;;;;;;;5074890;28;45321;-70
2022/09/16 00:53:15;;;;;;;;;7.25;7.25;;;;;;;;5074967;28;45573;-74
2022/09/16 00:55:41;;;;;;;;;7.50;7.50;;;;;;;;5074973;28;45849;-71
2022/09/16 00:58:13;;;;;;;;;8.00;8.00;;;;;;;;5075577;28;45473;-69
2022/09/16 01:00:38;;;;;;;;;6.25;6.25;;;;;;;;5074944;28;45272;-72
2022/09/16 01:03:04;;;;;;;;;7.50;7.50;;;;;;;;5056610;28;45768;-71
2022/09/16 01:05:30;;;;;;;;;9.00;9.00;;;;;;;;5074801;28;46593;-73
2022/09/16 01:07:55;;;;;;;;;8.50;8.50;;;;;;;;5074875;28;45326;-70
2022/09/16 01:10:22;;;;;;;;;9.00;9.00;;;;;;;;5074686;28;45390;-75
2022/09/16 01:12:52;;;;;;;;;7.25;7.25;;;;;;;;5075167;28;45424;-71
2022/09/16 01:15:18;;;;;;;;;5.50;5.50;;;;;;;;5074615;28;45312;-71
2022/09/16 01:17:55;;;;;;;;;9.50;9.50;;;;;;;;5074223;28;45368;-71
2022/09/16 01:20:23;;;;;;;;;8.25;8.25;;;;;;;;5074684;28;45428;-72
2022/09/16 01:22:51;;;;;;;;;8.75;8.75;;;;;;;;5056433;28;45610;-70
2022/09/16 01:25:35;;;;;;;;;8.00;7.75;;;;;;;;5076340;28;45300;-73
2022/09/16 01:28:09;;;;;;;;;8.25;8.25;;;;;;;;5078371;28;45285;-70
2022/09/16 01:30:51;;;;;;;;;7.00;7.00;;;;;;;;5059671;28;45343;-70
2022/09/16 01:33:16;;;;;;;;;8.00;8.00;;;;;;;;5078135;28;45471;-70
2022/09/16 01:36:00;;;;;;;;;10.00;8.75;;;;;;;;5078047;28;46378;-70
2022/09/16 01:38:28;;;;;;;;;6.50;6.50;;;;;;;;5078061;28;45303;-70
2022/09/16 01:41:05;;;;;;;;;9.75;9.75;;;;;;;;5078373;28;45388;-69
2022/09/16 01:43:30;;;;;;;;;9.50;9.50;;;;;;;;5077997;28;45236;-70
2022/09/16 01:46:16;;;;;;;;;11.00;10.50;;;;;;;;5078277;28;45929;-71
2022/09/16 01:48:44;;;;;;;;;9.00;9.00;;;;;;;;5077357;27;45364;-70
2022/09/16 01:51:09;;;;;;;;;8.00;8.00;;;;;;;;5059500;28;45261;-74
2022/09/16 01:53:44;;;;;;;;;9.60;9.60;;;;;;;;5078147;28;45425;-68
2022/09/16 01:56:20;;;;;;;;;12.50;10.25;;;;;;;;5078410;28;45467;-74
2022/09/16 01:58:52;;;;;;;;;9.50;9.50;;;;;;;;5077727;28;45405;-69
2022/09/16 02:01:22;;;;;;;;;8.50;8.50;;;;;;;;5077934;28;45224;-70
2022/09/16 02:03:51;;;;;;;;;6.00;6.00;;;;;;;;5077756;28;45327;-73
2022/09/16 02:06:18;;;;;;;;;8.75;8.75;;;;;;;;5077268;28;45415;-70
2022/09/16 02:08:52;;;;;;;;;8.75;7.50;;;;;;;;5077391;28;45426;-70
2022/09/16 02:11:18;;;;;;;;;8.00;8.00;;;;;;;;5077308;28;45224;-72
2022/09/16 02:13:44;;;;;;;;;10.50;9.00;;;;;;;;5077599;28;45529;-71
2022/09/16 02:16:18;;;;;;;;;8.20;8.20;;;;;;;;5058930;28;46614;-71
2022/09/16 02:18:47;;;;;;;;;8.50;8.50;;;;;;;;5058895;28;45750;-70
2022/09/16 02:21:14;;;;;;;;;10.25;10.25;;;;;;;;5077321;28;45370;-71
2022/09/16 02:23:42;;;;;;;;;8.00;8.00;;;;;;;;5077676;28;45256;-70
2022/09/16 02:26:10;;;;;;;;;9.25;9.25;;;;;;;;5075415;28;46016;-69
2022/09/16 02:28:37;;;;;;;;;8.75;8.75;;;;;;;;5075054;28;45711;-70
2022/09/16 02:31:05;;;;;;;;;7.50;7.50;;;;;;;;5076967;28;45355;-69
2022/09/16 02:33:34;;;;;;;;;10.25;10.25;;;;;;;;5077914;28;45715;-74
2022/09/16 02:36:00;;;;;;;;;9.50;9.50;;;;;;;;5076495;28;45382;-77
2022/09/16 02:38:29;;;;;;;;;9.50;9.50;;;;;;;;5076593;28;45390;-72
2022/09/16 02:40:56;;;;;;;;;12.25;12.25;;;;;;;;5076656;28;45343;-73
2022/09/16 02:43:22;;;;;;;;;11.00;11.00;;;;;;;;5077143;28;45949;-74
2022/09/16 02:45:53;;;;;;;;;10.00;10.00;;;;;;;;5077054;28;46115;-70
2022/09/16 02:48:40;;;;;;;;;8.50;8.50;;;;;;;;5076888;28;45451;-69
2022/09/16 02:51:22;;;;;;;;;10.75;10.00;;;;;;;;5059092;28;45378;-72
2022/09/16 02:54:05;;;;;;;;;9.75;9.75;;;;;;;;5076116;28;45343;-71
2022/09/16 02:56:32;;;;;;;;;9.50;9.25;;;;;;;;5058321;28;47932;-72
2022/09/16 02:58:58;;;;;;;;;8.00;8.00;;;;;;;;5058710;28;45481;-71
2022/09/16 03:01:23;;;;;;;;;10.00;10.00;;;;;;;;5076507;28;45410;-73
2022/09/16 03:03:49;;;;;;;;;9.50;9.50;;;;;;;;5077188;28;45665;-70
2022/09/16 03:06:19;;;;;;;;;10.00;10.00;;;;;;;;5076446;28;46435;-73
2022/09/16 03:08:45;;;;;;;;;12.50;11.50;;;;;;;;5076352;28;45410;-74
2022/09/16 03:11:22;;;;;;;;;9.75;9.75;;;;;;;;5076488;28;45395;-72
2022/09/16 03:13:53;;;;;;;;;9.75;9.75;;;;;;;;5076438;28;45279;-70
2022/09/16 03:16:23;;;;;;;;;9.00;9.00;;;;;;;;5076544;28;45261;-72
2022/09/16 03:18:48;;;;;;;;;11.75;11.75;;;;;;;;5057685;28;45414;-69
2022/09/16 03:21:22;;;;;;;;;10.75;10.25;;;;;;;;5076351;28;45636;-69
2022/09/16 03:24:00;;;;;;;;;9.00;9.00;;;;;;;;5076676;28;45382;-69
2022/09/16 03:26:29;;;;;;;;;11.25;10.75;;;;;;;;5076327;28;46762;-70
2022/09/16 03:29:06;;;;;;;;;8.00;8.00;;;;;;;;5076441;28;45440;-69
2022/09/16 03:31:31;;;;;;;;;10.00;10.00;;;;;;;;5076505;28;45348;-72
2022/09/16 03:34:09;;;;;;;;;10.75;10.75;;;;;;;;5076668;28;45417;-70
2022/09/16 03:36:39;;;;;;;;;9.00;9.00;;;;;;;;5076272;28;45429;-68
2022/09/16 03:39:04;;;;;;;;;9.00;9.00;;;;;;;;5076226;28;45434;-70
2022/09/16 03:41:31;;;;;;;;;12.25;12.25;;;;;;;;5076620;28;45367;-69
2022/09/16 03:43:57;;;;;;;;;8.75;8.75;;;;;;;;5077249;28;45665;-69
2022/09/16 03:46:24;;;;;;;;;9.75;9.75;;;;;;;;5057599;28;45547;-72
2022/09/16 03:48:49;;;;;;;;;9.25;9.25;;;;;;;;5056821;28;46132;-75
2022/09/16 03:51:14;;;;;;;;;11.25;11.25;;;;;;;;5076332;28;45368;-74
2022/09/16 03:53:40;;;;;;;;;14.50;14.50;;;;;;;;5076242;28;45580;-73
2022/09/16 03:56:05;;;;;;;;;13.25;13.25;;;;;;;;5076146;28;45411;-75
2022/09/16 03:58:30;;;;;;;;;20.75;20.75;;;;;;;;5075865;28;45257;-73
2022/09/16 04:00:55;;;;;;;;;15.25;15.25;;;;;;;;5076105;28;45216;-73
2022/09/16 04:03:21;;;;;;;;;17.00;17.00;;;;;;;;5076002;28;45363;-72
2022/09/16 04:05:50;;;;;;;;;17.00;17.00;;;;;;;;5057565;28;47068;-73
2022/09/16 04:08:16;;;;;;;;;18.75;18.75;;;;;;;;5075656;28;45418;-74
2022/09/16 04:10:41;;;;;;;;;23.25;20.50;;;;;;;;5075954;28;45311;-72
2022/09/16 04:13:08;;;;;;;;;17.25;16.50;;;;;;;;5075998;28;45475;-72
2022/09/16 04:15:35;;;;;;;;;15.25;15.25;;;;;;;;5075744;27;45575;-74
2022/09/16 04:18:00;;;;;;;;;14.50;14.50;;;;;;;;5074847;28;45315;-72
2022/09/16 04:20:26;;;;;;;;;12.75;12.75;;;;;;;;5075210;28;45470;-74
2022/09/16 04:22:51;;;;;;;;;14.25;14.25;;;;;;;;5075703;28;45478;-71
2022/09/16 04:25:16;;;;;;;;;16.25;16.25;;;;;;;;5075014;28;46202;-73
2022/09/16 04:27:41;;;;;;;;;12.50;12.50;;;;;;;;5076147;28;45302;-73
2022/09/16 04:30:07;;;;;;;;;11.50;11.50;;;;;;;;5057347;28;45363;-72
2022/09/16 04:32:32;;;;;;;;;15.50;15.50;;;;;;;;5076616;28;45506;-72
2022/09/16 04:34:57;;;;;;;;;14.25;14.00;;;;;;;;5077489;28;46214;-72
2022/09/16 04:37:22;;;;;;;;;11.50;11.50;;;;;;;;5078561;28;45378;-72
2022/09/16 04:39:48;;;;;;;;;12.75;12.25;;;;;;;;5077056;28;45165;-72
2022/09/16 04:42:13;;;;;;;;;12.50;12.50;;;;;;;;5075989;28;45410;-71
2022/09/16 04:44:38;;;;;;;;;12.00;12.00;;;;;;;;5075794;28;45359;-71
2022/09/16 04:47:04;;;;;;;;;9.25;9.25;;;;;;;;5075526;28;45268;-75
2022/09/16 04:49:29;;;;;;;;;12.50;12.50;;;;;;;;5075834;28;45427;-73
2022/09/16 04:51:54;;;;;;;;;13.50;12.50;;;;;;;;5075486;28;45295;-71
2022/09/16 04:54:19;;;;;;;;;10.25;10.00;;;;;;;;5075076;28;46293;-72
2022/09/16 04:56:45;;;;;;;;;13.75;13.75;;;;;;;;5075056;28;45347;-71
2022/09/16 04:59:10;;;;;;;;;13.50;13.50;;;;;;;;5075488;28;45275;-72
2022/09/16 05:01:37;;;;;;;;;10.75;10.75;;;;;;;;5079172;28;45621;-74
2022/09/16 05:04:04;;;;;;;;;13.25;13.25;;;;;;;;5078316;28;45682;-71
2022/09/16 05:06:31;;;;;;;;;12.75;12.75;;;;;;;;5078799;28;45309;-72
2022/09/16 05:08:57;;;;;;;;;14.50;14.50;;;;;;;;5078391;28;45324;-73
2022/09/16 05:11:26;;;;;;;;;13.50;13.50;;;;;;;;5078573;28;45440;-71
2022/09/16 05:13:51;;;;;;;;;14.25;14.25;;;;;;;;5059805;28;45710;-72
2022/09/16 05:16:18;;;;;;;;;14.00;14.00;;;;;;;;5078404;28;45308;-74
2022/09/16 05:18:45;;;;;;;;;10.25;10.25;;;;;;;;5078527;28;45305;-74
2022/09/16 05:21:11;;;;;;;;;11.50;11.50;;;;;;;;5061776;28;45574;-73
2022/09/16 05:23:37;;;;;;;;;14.25;14.25;;;;;;;;5060848;28;46384;-73
2022/09/16 05:26:03;;;;;;;;;11.00;11.00;;;;;;;;5079125;28;45338;-72
2022/09/16 05:28:29;;;;;;;;;12.75;12.75;;;;;;;;5078716;28;45444;-74
2022/09/16 05:30:54;;;;;;;;;13.00;13.00;;;;;;;;5078654;28;45362;-73
2022/09/16 05:33:19;;;;;;;;;10.25;10.25;;;;;;;;5060099;28;47231;-74
2022/09/16 05:35:44;;;;;;;;;12.25;12.25;;;;;;;;5078760;28;45400;-75
2022/09/16 05:38:10;;;;;;;;;12.25;12.25;;;;;;;;5080750;28;45398;-75
2022/09/16 05:40:35;;;;;;;;;14.00;14.00;;;;;;;;5079038;28;45544;-75
2022/09/16 05:43:01;;;;;;;;;14.25;14.25;;;;;;;;5077966;28;46331;-74
2022/09/16 05:45:26;;;;;;;;;16.25;16.25;;;;;;;;5077645;28;45513;-73
2022/09/16 05:47:51;;;;;;;;;21.50;18.75;;;;;;;;5078095;28;45235;-72
2022/09/16 05:50:17;;;;;;;;;21.25;18.75;;;;;;;;5077922;28;45573;-71
2022/09/16 05:52:42;;;;;;;;;14.25;14.25;;;;;;;;5059425;28;48206;-71
2022/09/16 05:55:08;;;;;;;;;16.25;16.25;;;;;;;;5078421;28;45251;-74
2022/09/16 05:57:33;;;;;;;;;12.50;12.50;;;;;;;;5078577;28;45709;-73
2022/09/16 05:59:58;;;;;;;;;15.00;15.00;;;;;;;;5079203;28;45595;-74
2022/09/16 06:02:23;;;;;;;;;13.50;13.50;;;;;;;;5060557;28;48222;-74
2022/09/16 06:04:49;;;;;;;;;36.50;33.75;;;;;;;;5059630;28;45299;-74
2022/09/16 06:07:14;;;;;;;;;17.25;17.00;;;;;;;;5077675;28;45525;-73
2022/09/16 06:09:40;;;;;;;;;15.00;15.00;;;;;;;;5078501;28;45351;-76
2022/09/16 06:12:05;;;;;;;;;17.00;16.25;;;;;;;;5058838;28;47930;-74
2022/09/16 06:14:31;;;;;;;;;14.75;14.00;;;;;;;;5078207;28;45304;-72
2022/09/16 06:16:56;;;;;;;;;15.25;15.00;;;;;;;;5079230;28;45199;-74
2022/09/16 06:19:21;;;;;;;;;13.75;13.75;;;;;;;;5078882;28;45210;-73
2022/09/16 06:21:46;;;;;;;;;17.25;17.25;;;;;;;;5059983;28;45468;-74
2022/09/16 06:24:13;;;;;;;;;17.25;17.25;;;;;;;;5079130;28;45283;-75
2022/09/16 06:26:39;;;;;;;;;16.75;16.25;;;;;;;;5077958;28;45260;-74
2022/09/16 06:29:05;;;;;;;;;15.25;15.25;;;;;;;;5057573;28;45535;-75
2022/09/16 06:31:30;;;;;;;;;13.00;13.00;;;;;;;;5076278;28;45447;-73
2022/09/16 06:33:56;;;;;;;;;15.75;15.75;;;;;;;;5077246;27;45359;-75
2022/09/16 06:36:23;;;;;;;;;17.50;17.50;;;;;;;;5077641;28;45464;-74
2022/09/16 06:38:50;;;;;;;;;18.00;18.00;;;;;;;;5077266;28;45827;-75
2022/09/16 06:41:16;;;;;;;;;18.25;18.25;;;;;;;;5077273;28;45388;-72
2022/09/16 06:43:41;;;;;;;;;15.50;15.00;;;;;;;;5076677;28;45192;-74
2022/09/16 06:46:15;;;;;;;;;18.25;18.25;;;;;;;;5076731;28;45202;-73
2022/09/16 06:48:41;;;;;;;;;20.50;19.50;;;;;;;;5077273;28;45424;-73
2022/09/16 06:51:08;;;;;;;;;15.25;15.25;;;;;;;;5076798;28;46292;-73
2022/09/16 06:53:33;;;;;;;;;21.50;21.00;;;;;;;;5076526;28;45217;-73
2022/09/16 06:55:59;;;;;;;;;18.25;18.25;;;;;;;;5075747;28;45320;-74
2022/09/16 06:58:25;;;;;;;;;18.50;18.50;;;;;;;;5076543;28;45455;-75
2022/09/16 07:00:50;;;;;;;;;15.25;15.25;;;;;;;;5076354;28;46212;-74
2022/09/16 07:03:15;;;;;;;;;17.25;17.25;;;;;;;;5076448;27;45387;-72
2022/09/16 07:05:40;;;;;;;;;16.50;16.50;;;;;;;;5058208;28;45359;-75
2022/09/16 07:08:06;;;;;;;;;14.50;14.50;;;;;;;;5076695;28;45399;-77
2022/09/16 07:10:31;;;;;;;;;13.25;13.25;;;;;;;;5076197;28;46312;-72
2022/09/16 07:12:57;;;;;;;;;16.00;16.00;;;;;;;;5075316;28;45351;-74
2022/09/16 07:15:22;;;;;;;;;15.25;15.25;;;;;;;;5076258;28;45330;-77
2022/09/16 07:17:52;;;;;;;;;19.25;17.75;;;;;;;;5057844;28;45459;-71
2022/09/16 07:20:17;;;;;;;;;17.75;17.75;;;;;;;;5076910;28;45405;-72
2022/09/16 07:22:42;;;;;;;;;15.00;15.00;;;;;;;;5076349;28;45423;-75
2022/09/16 07:25:08;;;;;;;;;20.50;20.50;;;;;;;;5058199;28;45368;-73
2022/09/16 07:27:33;;;;;;;;;17.00;17.00;;;;;;;;5076171;27;45589;-74
2022/09/16 07:29:59;;;;;;;;;17.00;17.00;;;;;;;;5075604;28;46566;-73
2022/09/16 07:32:25;;;;;;;;;16.50;16.50;;;;;;;;5075791;28;45390;-73
2022/09/16 07:34:50;;;;;;;;;17.25;17.25;;;;;;;;5075916;28;45354;-74
2022/09/16 07:37:16;;;;;;;;;19.00;19.00;;;;;;;;5076357;28;45361;-73
2022/09/16 07:39:42;;;;;;;;;13.50;13.50;;;;;;;;5075904;28;47605;-75
2022/09/16 07:42:07;;;;;;;;;18.00;16.75;;;;;;;;5057425;28;45352;-74
2022/09/16 07:44:32;;;;;;;;;18.00;18.00;;;;;;;;5076463;28;45272;-74
2022/09/16 07:46:57;;;;;;;;;15.75;15.75;;;;;;;;5076906;28;45382;-73
2022/09/16 07:49:23;;;;;;;;;24.75;24.75;;;;;;;;5076033;28;45379;-74
2022/09/16 07:51:48;;;;;;;;;12.25;12.25;;;;;;;;5057674;28;45449;-74
2022/09/16 07:54:15;;;;;;;;;18.25;18.25;;;;;;;;5075962;28;45342;-73
2022/09/16 07:56:41;;;;;;;;;19.00;19.00;;;;;;;;5076243;28;45516;-75
2022/09/16 07:59:09;;;;;;;;;18.75;18.75;;;;;;;;5076274;28;46216;-75
2022/09/16 08:01:34;;;;;;;;;14.75;14.75;;;;;;;;5076338;28;45251;-75
2022/09/16 08:03:59;;;;;;;;;13.75;13.75;;;;;;;;5057861;28;45407;-73
2022/09/16 08:06:26;;;;;;;;;14.00;13.25;;;;;;;;5076286;28;45342;-74
2022/09/16 08:08:52;;;;;;;;;11.00;11.00;;;;;;;;5075613;28;47963;-71
2022/09/16 08:11:18;;;;;;;;;12.50;12.50;;;;;;;;5076393;28;45443;-72
2022/09/16 08:13:45;;;;;;;;;19.25;19.25;;;;;;;;5057747;28;45621;-71
2022/09/16 08:16:11;;;;;;;;;11.25;11.25;;;;;;;;5076054;28;45610;-73
2022/09/16 08:18:37;;;;;;;;;13.25;13.25;;;;;;;;5075568;28;45330;-75
2022/09/16 08:21:06;;;;;;;;;12.00;12.00;;;;;;;;5057501;28;45247;-71
2022/09/16 08:23:32;;;;;;;;;13.25;12.75;;;;;;;;5075725;27;45345;-74
2022/09/16 08:25:58;;;;;;;;;15.50;15.50;;;;;;;;5058104;28;45316;-74
2022/09/16 08:28:24;;;;;;;;;11.25;11.25;;;;;;;;5075557;28;45541;-76
2022/09/16 08:30:49;;;;;;;;;13.75;13.75;;;;;;;;5075695;28;45280;-73
2022/09/16 08:33:14;;;;;;;;;14.00;14.00;;;;;;;;5076086;28;45344;-73
2022/09/16 08:35:40;;;;;;;;;11.50;11.50;;;;;;;;5075333;28;45223;-77
2022/09/16 08:38:06;;;;;;;;;10.00;10.00;;;;;;;;5076012;28;45359;-75
2022/09/16 08:40:34;;;;;;;;;11.00;11.00;;;;;;;;5075832;28;45210;-74
2022/09/16 08:43:11;;;;;;;;;17.75;17.00;;;;;;;;5076193;28;45472;-74
2022/09/16 08:45:42;;;;;;;;;12.00;12.00;;;;;;;;5077586;28;45383;-73
2022/09/16 08:48:23;;;;;;;;;8.75;8.75;;;;;;;;5057387;28;46538;-73
2022/09/16 08:50:49;;;;;;;;;9.75;9.75;;;;;;;;5075329;28;45438;-76
2022/09/16 08:53:31;;;;;;;;;16.00;15.75;;;;;;;;5075276;28;45262;-75
2022/09/16 08:55:57;;;;;;;;;6.00;6.00;;;;;;;;5075887;28;45365;-74
2022/09/16 08:58:29;;;;;;;;;9.25;9.25;;;;;;;;5075139;28;46498;-73
2022/09/16 09:01:14;;;;;;;;;10.75;9.75;;;;;;;;5076301;28;45351;-73
2022/09/16 09:03:40;;;;;;;;;11.25;11.25;;;;;;;;5075163;28;45311;-76
2022/09/16 09:06:26;;;;;;;;;6.00;5.75;;;;;;;;5075909;28;45370;-74
2022/09/16 09:08:51;;;;;;;;;3.75;3.75;;;;;;;;5053929;28;45569;-76
2022/09/16 09:11:23;;;;;;;;;7.50;6.75;;;;;;;;5075237;28;45387;-77
2022/09/16 09:13:49;;;;;;;;;5.75;5.75;;;;;;;;5075847;28;45281;-71
2022/09/16 09:16:24;;;;;;;;;7.00;7.00;;;;;;;;5075339;28;45232;-76
2022/09/16 09:18:59;;;;;;;;;5.75;5.75;;;;;;;;5075188;28;45387;-76
2022/09/16 09:21:27;;;;;;;;;7.25;7.25;;;;;;;;5075339;28;45259;-71
2022/09/16 09:23:55;;;;;;;;;4.25;4.25;;;;;;;;5057714;28;45447;-74
2022/09/16 09:26:30;;;;;;;;;5.75;5.75;;;;;;;;5076054;28;45558;-73
2022/09/16 09:29:14;;;;;;;;;4.75;4.75;;;;;;;;5074925;28;45536;-73
2022/09/16 09:31:45;;;;;;;;;6.50;6.50;;;;;;;;5075578;28;45407;-74
2022/09/16 09:34:23;;;;;;;;;4.75;4.75;;;;;;;;5074935;27;45340;-75
2022/09/16 09:36:57;;;;;;;;;4.00;4.00;;;;;;;;5075084;28;45281;-76
2022/09/16 09:39:39;;;;;;;;;2.75;2.75;;;;;;;;5056572;28;47099;-74
2022/09/16 09:42:10;;;;;;;;;5.25;5.25;;;;;;;;5075258;28;45414;-72
2022/09/16 09:44:54;;;;;;;;;4.25;4.25;;;;;;;;5074455;28;45402;-75
2022/09/16 09:47:31;;;;;;;;;5.25;5.25;;;;;;;;5078710;28;45552;-76
2022/09/16 09:50:01;;;;;;;;;3.50;3.50;;;;;;;;5077753;28;47069;-73
2022/09/16 09:52:39;;;;;;;;;4.00;4.00;;;;;;;;5077673;28;45410;-73
2022/09/16 09:55:18;;;;;;;;;5.50;5.50;;;;;;;;5077566;28;45271;-75
2022/09/16 09:58:00;;;;;;;;;30.00;27.25;;;;;;;;5077717;28;45259;-75
2022/09/16 10:00:26;;;;;;;;;6.75;6.75;;;;;;;;5077808;28;46545;-74
2022/09/16 10:03:02;;;;;;;;;4.50;4.00;;;;;;;;5077260;28;45382;-74
2022/09/16 10:05:28;;;;;;;;;7.00;7.00;;;;;;;;5076919;28;45212;-73
2022/09/16 10:07:58;;;;;;;;;5.50;5.50;;;;;;;;5077505;28;45437;-71
2022/09/16 10:10:24;;;;;;;;;3.00;3.00;;;;;;;;5077406;28;45326;-72
2022/09/16 10:12:50;;;;;;;;;7.25;7.25;;;;;;;;5077245;28;45378;-73
2022/09/16 10:15:41;;;;;;;;;3.00;3.00;;;;;;;;5077126;28;45259;-70
2022/09/16 10:18:28;;;;;;;;;5.00;5.00;;;;;;;;5074877;27;45574;-72
2022/09/16 10:21:08;;;;;;;;;2.25;2.25;;;;;;;;5077229;28;46562;-75
2022/09/16 10:23:34;;;;;;;;;5.75;5.75;;;;;;;;5076809;28;45312;-74
2022/09/16 10:26:20;;;;;;;;;0.50;0.00;;;;;;;;5077252;28;45486;-74
2022/09/16 10:28:52;;;;;;;;;11.25;11.25;;;;;;;;5077405;28;45488;-74
2022/09/16 10:31:17;;;;;;;;;1.00;1.00;;;;;;;;5077123;28;46764;-77
2022/09/16 10:33:44;;;;;;;;;7.75;7.75;;;;;;;;5058545;28;45427;-75
2022/09/16 10:36:16;;;;;;;;;1.25;1.25;;;;;;;;5076179;28;45211;-75
2022/09/16 10:38:43;;;;;;;;;1.00;1.00;;;;;;;;5075715;27;45526;-75
2022/09/16 10:41:16;;;;;;;;;6.00;5.75;;;;;;;;5075881;28;45613;-75
2022/09/16 10:43:55;;;;;;;;;7.25;7.25;;;;;;;;5076260;28;45213;-76
2022/09/16 10:46:20;;;;;;;;;1.75;1.75;;;;;;;;5077037;28;45344;-77
2022/09/16 10:48:47;;;;;;;;;3.00;3.00;;;;;;;;5076843;28;45385;-73
2022/09/16 10:51:38;;;;;;;;;1.25;1.25;;;;;;;;5076352;28;45364;-75
2022/09/16 10:54:07;;;;;;;;;8.00;8.00;;;;;;;;5074188;28;45290;-75
2022/09/16 10:56:34;;;;;;;;;1.25;1.25;;;;;;;;5076401;28;45390;-72
2022/09/16 10:59:09;;;;;;;;;2.00;2.00;;;;;;;;5076166;28;45278;-73
2022/09/16 11:01:36;;;;;;;;;3.75;3.75;;;;;;;;5075966;28;46725;-74
2022/09/16 11:04:04;;;;;;;;;9.00;9.00;;;;;;;;5058199;28;45398;-73
2022/09/16 11:06:38;;;;;;;;;3.25;3.25;;;;;;;;5077690;28;45376;-71
2022/09/16 11:09:06;;;;;;;;;3.75;3.75;;;;;;;;5059838;28;45463;-73
2022/09/16 11:11:50;;;;;;;;;3.00;3.00;;;;;;;;5076582;28;45501;-74
2022/09/16 11:14:21;;;;;;;;;2.00;2.00;;;;;;;;5076862;28;45313;-70
2022/09/16 11:17:05;;;;;;;;;0.25;0.25;;;;;;;;5076258;28;45231;-73
2022/09/16 11:19:36;;;;;;;;;2.00;2.00;;;;;;;;5076162;28;45743;-72
2022/09/16 11:22:04;;;;;;;;;3.75;3.75;;;;;;;;5075734;28;46417;-75
2022/09/16 11:24:35;;;;;;;;;2.00;2.00;;;;;;;;5076089;28;45225;-74
2022/09/16 11:27:09;;;;;;;;;1.75;1.75;;;;;;;;5076680;28;45373;-74
2022/09/16 11:29:53;;;;;;;;;4.50;4.50;;;;;;;;5057665;28;45359;-73
2022/09/16 11:32:21;;;;;;;;;1.50;1.50;;;;;;;;5075495;28;46413;-73
2022/09/16 11:34:54;;;;;;;;;1.00;1.00;;;;;;;;5075930;28;45475;-74
2022/09/16 11:37:19;;;;;;;;;3.75;3.75;;;;;;;;5076012;28;45395;-73
2022/09/16 11:39:44;;;;;;;;;4.00;4.00;;;;;;;;5076075;28;45362;-72
2022/09/16 11:42:19;;;;;;;;;1.75;1.75;;;;;;;;5076035;28;45606;-75
2022/09/16 11:44:50;;;;;;;;;2.00;2.00;;;;;;;;5076026;28;45479;-75
2022/09/16 11:47:25;;;;;;;;;0.00;0.00;;;;;;;;5075710;28;45300;-72
2022/09/16 11:50:08;;;;;;;;;1.75;1.75;;;;;;;;5076053;28;45517;-73
2022/09/16 11:52:49;;;;;;;;;2.00;2.00;;;;;;;;5075366;28;45436;-73
2022/09/16 11:55:21;;;;;;;;;1.00;1.00;;;;;;;;5057707;28;45168;-74
2022/09/16 11:57:50;;;;;;;;;1.25;1.25;;;;;;;;5057423;28;45213;-73
2022/09/16 12:00:17;;;;;;;;;1.00;1.00;;;;;;;;5075495;28;45657;-73
2022/09/16 12:02:52;;;;;;;;;2.25;2.25;;;;;;;;5075240;28;46059;-75
2022/09/16 12:05:23;;;;;;;;;1.25;1.25;;;;;;;;5075287;28;45378;-73
2022/09/16 12:08:01;;;;;;;;;0.00;0.00;;;;;;;;5075713;28;45385;-72
2022/09/16 12:10:33;;;;;;;;;0.75;0.75;;;;;;;;5074345;28;45413;-71
2022/09/16 12:13:03;;;;;;;;;1.00;1.00;;;;;;;;5056932;28;45340;-72
2022/09/16 12:15:32;;;;;;;;;1.00;1.00;;;;;;;;5075209;28;45442;-74
2022/09/16 12:18:05;;;;;;;;;3.25;3.25;;;;;;;;5075126;28;45158;-72
2022/09/16 12:20:37;;;;;;;;;2.00;2.00;;;;;;;;5075730;28;45385;-72
2022/09/16 12:23:11;;;;;;;;;0.75;0.75;;;;;;;;5075303;28;45390;-72
2022/09/16 12:25:39;;;;;;;;;2.00;2.00;;;;;;;;5075130;28;45410;-73
2022/09/16 12:28:11;;;;;;;;;1.00;1.00;;;;;;;;5074999;28;45285;-72
2022/09/16 12:30:39;;;;;;;;;3.00;3.00;;;;;;;;5075266;28;45421;-73
2022/09/16 12:33:09;;;;;;;;;3.00;3.00;;;;;;;;5074768;28;46588;-70
2022/09/16 12:35:53;;;;;;;;;1.00;1.00;;;;;;;;5074546;28;45482;-71
2022/09/16 12:38:19;;;;;;;;;0.75;0.75;;;;;;;;5074786;28;45174;-70
2022/09/16 12:41:00;;;;;;;;;1.75;1.75;;;;;;;;5075036;28;45509;-72
2022/09/16 12:43:25;;;;;;;;;0.50;0.50;;;;;;;;5074799;28;45472;-72
2022/09/16 12:45:59;;;;;;;;;1.25;1.25;;;;;;;;5074493;28;45185;-73
2022/09/16 12:48:31;;;;;;;;;1.00;1.00;;;;;;;;5074632;28;45398;-71
2022/09/16 12:51:07;;;;;;;;;1.25;1.25;;;;;;;;5074587;28;45331;-71
2022/09/16 12:53:52;;;;;;;;;4.75;4.75;;;;;;;;5074698;28;46589;-72
2022/09/16 12:56:24;;;;;;;;;1.75;1.75;;;;;;;;5074003;27;45376;-70
2022/09/16 12:59:01;;;;;;;;;3.75;3.75;;;;;;;;5074697;28;45204;-73
2022/09/16 13:01:43;;;;;;;;;0.75;0.00;;;;;;;;5074795;28;45493;-71
2022/09/16 13:04:38;;;;;;;;;2.50;2.50;;;;;;;;5074177;28;45321;-72
2022/09/16 13:07:03;;;;;;;;;2.00;2.00;;;;;;;;5065557;28;45229;-73
2022/09/16 13:09:30;;;;;;;;;1.50;1.50;;;;;;;;5074561;28;45240;-73
2022/09/16 13:11:58;;;;;;;;;3.00;3.00;;;;;;;;5056557;28;45479;-71
2022/09/16 13:14:26;;;;;;;;;3.75;3.75;;;;;;;;5056284;28;47995;-74
2022/09/16 13:16:53;;;;;;;;;2.00;2.00;;;;;;;;5056092;28;45423;-72
2022/09/16 13:19:37;;;;;;;;;1.00;1.00;;;;;;;;5074540;28;45310;-73
2022/09/16 13:22:37;;;;;;;;;1.00;1.00;;;;;;;;5077534;28;45211;-73
2022/09/16 13:25:16;;;;;;;;;1.50;1.50;;;;;;;;5018468;28;46336;-72
2022/09/16 13:27:51;;;;;;;;;2.75;2.75;;;;;;;;5072063;28;45250;-71
2022/09/16 13:30:25;;;;;;;;;3.00;3.00;;;;;;;;5077852;28;45248;-72
2022/09/16 13:32:50;;;;;;;;;2.50;2.50;;;;;;;;5059243;28;45378;-70
2022/09/16 13:35:19;;;;;;;;;2.50;2.50;;;;;;;;5077565;28;46373;-75
2022/09/16 13:37:45;;;;;;;;;1.00;1.00;;;;;;;;5077932;28;45576;-73
2022/09/16 13:40:17;;;;;;;;;1.50;1.50;;;;;;;;5077363;28;45354;-72
2022/09/16 13:42:42;;;;;;;;;2.00;2.00;;;;;;;;5078040;28;45220;-71
2022/09/16 13:45:27;;;;;;;;;2.00;2.00;;;;;;;;5059338;28;46373;-72
2022/09/16 13:47:52;;;;;;;;;2.00;2.00;;;;;;;;5059067;28;45396;-71
2022/09/16 13:50:20;;;;;;;;;3.00;3.00;;;;;;;;5077754;28;45284;-72
2022/09/16 13:52:46;;;;;;;;;2.00;2.00;;;;;;;;5077617;28;45488;-72
2022/09/16 13:55:25;;;;;;;;;3.25;3.00;;;;;;;;5058666;28;45411;-73
2022/09/16 13:57:53;;;;;;;;;5.50;5.50;;;;;;;;5077513;28;45279;-74
2022/09/16 14:00:44;;;;;;;;;3.00;3.00;;;;;;;;5077613;28;45237;-73
2022/09/16 14:03:24;;;;;;;;;2.00;2.00;;;;;;;;5075162;27;45319;-72
2022/09/16 14:05:50;;;;;;;;;1.75;1.75;;;;;;;;5077058;28;45644;-72
2022/09/16 14:08:23;;;;;;;;;1.00;1.00;;;;;;;;5077157;28;45457;-72
2022/09/16 14:10:49;;;;;;;;;1.50;1.50;;;;;;;;5077725;28;45263;-73
2022/09/16 14:13:21;;;;;;;;;1.75;1.75;;;;;;;;5077357;28;45221;-73
2022/09/16 14:15:55;;;;;;;;;2.00;2.00;;;;;;;;5076671;28;46499;-73
2022/09/16 14:18:26;;;;;;;;;2.00;2.00;;;;;;;;5076707;28;45398;-73
2022/09/16 14:21:01;;;;;;;;;1.00;1.00;;;;;;;;5076809;28;45263;-74
2022/09/16 14:23:27;;;;;;;;;5.00;5.00;;;;;;;;5077080;28;45536;-72
2022/09/16 14:25:53;;;;;;;;;1.00;1.00;;;;;;;;5076599;28;45503;-76
2022/09/16 14:28:19;;;;;;;;;0.75;0.75;;;;;;;;5076619;28;45328;-73
2022/09/16 14:30:58;;;;;;;;;1.00;1.00;;;;;;;;5076912;28;45366;-72
2022/09/16 14:33:29;;;;;;;;;1.00;1.00;;;;;;;;5076144;27;45382;-71
2022/09/16 14:35:55;;;;;;;;;1.00;1.00;;;;;;;;5076623;28;45816;-72
2022/09/16 14:38:22;;;;;;;;;2.00;2.00;;;;;;;;5076906;28;45326;-74
2022/09/16 14:40:48;;;;;;;;;1.00;1.00;;;;;;;;5073260;28;45327;-71
2022/09/16 14:43:16;;;;;;;;;1.00;1.00;;;;;;;;5057128;28;45338;-72
2022/09/16 14:45:44;;;;;;;;;2.00;2.00;;;;;;;;5056651;28;45391;-72
2022/09/16 14:48:12;;;;;;;;;1.00;1.00;;;;;;;;5038647;28;45305;-72